Terminal Aerodrome Forecast
Issued by NWS Lake Charles, LA

Home | Current Version | Previous Version | Text Only | Print | Product List | Glossary On
Versions: 1 2 3 4 5 6 7 8 9 10 11 12 13 14 15 16 17 18 19 20
000
FTUS44 KLCH 162048 AAA
TAFAEX
TAF AMD
KAEX 162048Z 1621/1718 16006KT P6SM VCTS SCT025CB BKN035
     FM170100 17005KT P6SM VCSH SCT045 BKN250
     FM170300 VRB03KT P6SM SCT250=

USA.gov is the U.S. government's official web portal to all federal, state and local government web resources and services.